sensor_id;sensor_type;location;lat;lon;timestamp;temperature;humidity
27306;DHT22;14792;50.886;6.468;2022-09-21T00:02:15;8.20;99.90
27306;DHT22;14792;50.886;6.468;2022-09-21T00:05:17;8.10;99.90
27306;DHT22;14792;50.886;6.468;2022-09-21T00:08:18;8.10;99.90
27306;DHT22;14792;50.886;6.468;2022-09-21T00:11:21;8.00;99.90
27306;DHT22;14792;50.886;6.468;2022-09-21T00:14:22;8.00;99.90
27306;DHT22;14792;50.886;6.468;2022-09-21T00:17:23;8.00;99.90
27306;DHT22;14792;50.886;6.468;2022-09-21T00:20:25;7.90;99.90
27306;DHT22;14792;50.886;6.468;2022-09-21T00:23:26;7.90;99.90
27306;DHT22;14792;50.886;6.468;2022-09-21T00:26:28;7.80;99.90
27306;DHT22;14792;50.886;6.468;2022-09-21T00:29:29;7.80;99.90
27306;DHT22;14792;50.886;6.468;2022-09-21T00:32:32;7.80;99.90
27306;DHT22;14792;50.886;6.468;2022-09-21T00:35:33;7.70;99.90
27306;DHT22;14792;50.886;6.468;2022-09-21T00:38:34;7.80;99.90
27306;DHT22;14792;50.886;6.468;2022-09-21T00:41:36;7.70;99.90
27306;DHT22;14792;50.886;6.468;2022-09-21T00:44:37;7.70;99.90
27306;DHT22;14792;50.886;6.468;2022-09-21T00:47:40;7.60;99.90
27306;DHT22;14792;50.886;6.468;2022-09-21T00:50:44;7.50;99.90
27306;DHT22;14792;50.886;6.468;2022-09-21T00:53:42;7.40;99.90
27306;DHT22;14792;50.886;6.468;2022-09-21T00:56:44;7.50;99.90
27306;DHT22;14792;50.886;6.468;2022-09-21T00:59:46;7.50;99.90
27306;DHT22;14792;50.886;6.468;2022-09-21T01:02:47;7.50;99.90
27306;DHT22;14792;50.886;6.468;2022-09-21T01:05:49;7.60;99.90
27306;DHT22;14792;50.886;6.468;2022-09-21T01:08:51;7.60;99.90
27306;DHT22;14792;50.886;6.468;2022-09-21T01:18:50;7.60;99.90
27306;DHT22;14792;50.886;6.468;2022-09-21T01:21:54;7.60;99.90
27306;DHT22;14792;50.886;6.468;2022-09-21T01:31:37;7.50;99.90
27306;DHT22;14792;50.886;6.468;2022-09-21T01:35:06;7.50;99.90
27306;DHT22;14792;50.886;6.468;2022-09-21T01:38:11;7.50;99.90
27306;DHT22;14792;50.886;6.468;2022-09-21T01:41:08;7.50;99.90
27306;DHT22;14792;50.886;6.468;2022-09-21T01:44:13;7.40;99.90
27306;DHT22;14792;50.886;6.468;2022-09-21T01:47:13;7.40;99.90
27306;DHT22;14792;50.886;6.468;2022-09-21T01:50:15;7.40;99.90
27306;DHT22;14792;50.886;6.468;2022-09-21T01:53:24;7.30;99.90
27306;DHT22;14792;50.886;6.468;2022-09-21T01:56:29;7.10;99.90
27306;DHT22;14792;50.886;6.468;2022-09-21T01:59:51;7.10;99.90
27306;DHT22;14792;50.886;6.468;2022-09-21T02:03:01;7.10;99.90
27306;DHT22;14792;50.886;6.468;2022-09-21T02:05:52;7.10;99.90
27306;DHT22;14792;50.886;6.468;2022-09-21T02:08:53;7.00;99.90
27306;DHT22;14792;50.886;6.468;2022-09-21T02:11:55;7.00;99.90
27306;DHT22;14792;50.886;6.468;2022-09-21T02:14:57;6.90;99.90
27306;DHT22;14792;50.886;6.468;2022-09-21T02:18:04;6.90;99.90
27306;DHT22;14792;50.886;6.468;2022-09-21T02:21:03;7.00;99.90
27306;DHT22;14792;50.886;6.468;2022-09-21T02:24:17;7.00;99.90
27306;DHT22;14792;50.886;6.468;2022-09-21T02:27:22;7.00;99.90
27306;DHT22;14792;50.886;6.468;2022-09-21T02:30:25;6.90;99.90
27306;DHT22;14792;50.886;6.468;2022-09-21T02:33:37;6.90;99.90
27306;DHT22;14792;50.886;6.468;2022-09-21T02:36:32;7.00;99.90
27306;DHT22;14792;50.886;6.468;2022-09-21T02:39:34;7.00;99.90
27306;DHT22;14792;50.886;6.468;2022-09-21T02:42:35;7.00;99.90
27306;DHT22;14792;50.886;6.468;2022-09-21T02:45:40;7.00;99.90
27306;DHT22;14792;50.886;6.468;2022-09-21T02:48:50;6.90;99.90
27306;DHT22;14792;50.886;6.468;2022-09-21T02:51:51;6.90;99.90
27306;DHT22;14792;50.886;6.468;2022-09-21T02:54:52;6.90;99.90
27306;DHT22;14792;50.886;6.468;2022-09-21T02:57:53;6.90;99.90
27306;DHT22;14792;50.886;6.468;2022-09-21T03:00:55;6.90;99.90
27306;DHT22;14792;50.886;6.468;2022-09-21T03:03:56;6.90;99.90
27306;DHT22;14792;50.886;6.468;2022-09-21T03:06:58;6.90;99.90
27306;DHT22;14792;50.886;6.468;2022-09-21T03:10:00;6.90;99.90
27306;DHT22;14792;50.886;6.468;2022-09-21T03:13:01;6.80;99.90
27306;DHT22;14792;50.886;6.468;2022-09-21T03:16:04;6.80;99.90
27306;DHT22;14792;50.886;6.468;2022-09-21T03:19:04;6.70;99.90
27306;DHT22;14792;50.886;6.468;2022-09-21T03:22:06;6.80;99.90
27306;DHT22;14792;50.886;6.468;2022-09-21T03:25:08;6.80;99.90
27306;DHT22;14792;50.886;6.468;2022-09-21T03:28:09;6.80;99.90
27306;DHT22;14792;50.886;6.468;2022-09-21T03:31:11;6.80;99.90
27306;DHT22;14792;50.886;6.468;2022-09-21T03:34:12;6.80;99.90
27306;DHT22;14792;50.886;6.468;2022-09-21T03:37:14;6.50;99.90
27306;DHT22;14792;50.886;6.468;2022-09-21T03:40:16;6.50;99.90
27306;DHT22;14792;50.886;6.468;2022-09-21T03:43:17;6.50;99.90
27306;DHT22;14792;50.886;6.468;2022-09-21T03:46:19;6.40;99.90
27306;DHT22;14792;50.886;6.468;2022-09-21T03:49:20;6.40;99.90
27306;DHT22;14792;50.886;6.468;2022-09-21T03:52:22;6.50;99.90
27306;DHT22;14792;50.886;6.468;2022-09-21T03:55:24;6.50;99.90
27306;DHT22;14792;50.886;6.468;2022-09-21T03:58:25;6.40;99.90
27306;DHT22;14792;50.886;6.468;2022-09-21T04:01:27;6.40;99.90
27306;DHT22;14792;50.886;6.468;2022-09-21T04:04:28;6.40;99.90
27306;DHT22;14792;50.886;6.468;2022-09-21T04:07:30;6.40;99.90
27306;DHT22;14792;50.886;6.468;2022-09-21T04:10:31;6.40;99.90
27306;DHT22;14792;50.886;6.468;2022-09-21T04:13:33;6.50;99.90
27306;DHT22;14792;50.886;6.468;2022-09-21T04:16:35;6.50;99.90
27306;DHT22;14792;50.886;6.468;2022-09-21T04:19:36;6.50;99.90
27306;DHT22;14792;50.886;6.468;2022-09-21T04:22:38;6.50;99.90
27306;DHT22;14792;50.886;6.468;2022-09-21T04:25:39;6.50;99.90
27306;DHT22;14792;50.886;6.468;2022-09-21T04:28:41;6.40;99.90
27306;DHT22;14792;50.886;6.468;2022-09-21T04:31:43;6.40;99.90
27306;DHT22;14792;50.886;6.468;2022-09-21T04:34:44;6.40;99.90
27306;DHT22;14792;50.886;6.468;2022-09-21T04:37:46;6.40;99.90
27306;DHT22;14792;50.886;6.468;2022-09-21T04:40:54;6.40;99.90
27306;DHT22;14792;50.886;6.468;2022-09-21T04:43:54;6.30;99.90
27306;DHT22;14792;50.886;6.468;2022-09-21T04:46:56;6.30;99.90
27306;DHT22;14792;50.886;6.468;2022-09-21T04:49:58;6.30;99.90
27306;DHT22;14792;50.886;6.468;2022-09-21T04:52:59;6.20;99.90
27306;DHT22;14792;50.886;6.468;2022-09-21T04:56:01;6.30;99.90
27306;DHT22;14792;50.886;6.468;2022-09-21T04:59:02;6.20;99.90
27306;DHT22;14792;50.886;6.468;2022-09-21T05:02:04;6.20;99.90
27306;DHT22;14792;50.886;6.468;2022-09-21T05:05:05;6.30;99.90
27306;DHT22;14792;50.886;6.468;2022-09-21T05:08:07;6.30;99.90
27306;DHT22;14792;50.886;6.468;2022-09-21T05:11:09;6.20;99.90
27306;DHT22;14792;50.886;6.468;2022-09-21T05:14:10;6.20;99.90
27306;DHT22;14792;50.886;6.468;2022-09-21T05:17:12;6.20;99.90
27306;DHT22;14792;50.886;6.468;2022-09-21T05:20:13;6.20;99.90
27306;DHT22;14792;50.886;6.468;2022-09-21T05:23:15;6.20;99.90
27306;DHT22;14792;50.886;6.468;2022-09-21T05:26:17;6.10;99.90
27306;DHT22;14792;50.886;6.468;2022-09-21T05:29:18;6.10;99.90
27306;DHT22;14792;50.886;6.468;2022-09-21T05:32:23;6.00;99.90
27306;DHT22;14792;50.886;6.468;2022-09-21T05:38:40;5.80;99.90
27306;DHT22;14792;50.886;6.468;2022-09-21T05:41:42;5.70;99.90
27306;DHT22;14792;50.886;6.468;2022-09-21T05:44:43;5.70;99.90
27306;DHT22;14792;50.886;6.468;2022-09-21T05:51:33;5.90;99.90
27306;DHT22;14792;50.886;6.468;2022-09-21T06:04:10;6.00;99.90
27306;DHT22;14792;50.886;6.468;2022-09-21T06:07:15;6.10;99.90
27306;DHT22;14792;50.886;6.468;2022-09-21T06:10:17;6.10;99.90
27306;DHT22;14792;50.886;6.468;2022-09-21T06:13:18;6.20;99.90
27306;DHT22;14792;50.886;6.468;2022-09-21T06:16:20;6.40;99.90
27306;DHT22;14792;50.886;6.468;2022-09-21T06:19:21;6.40;99.90
27306;DHT22;14792;50.886;6.468;2022-09-21T06:22:23;6.60;99.90
27306;DHT22;14792;50.886;6.468;2022-09-21T06:25:24;6.70;99.90
27306;DHT22;14792;50.886;6.468;2022-09-21T06:28:26;6.80;99.90
27306;DHT22;14792;50.886;6.468;2022-09-21T06:31:28;7.10;99.90
27306;DHT22;14792;50.886;6.468;2022-09-21T06:34:29;7.20;99.90
27306;DHT22;14792;50.886;6.468;2022-09-21T06:37:31;7.40;99.90
27306;DHT22;14792;50.886;6.468;2022-09-21T06:40:34;7.50;99.90
27306;DHT22;14792;50.886;6.468;2022-09-21T06:43:34;7.70;99.90
27306;DHT22;14792;50.886;6.468;2022-09-21T06:46:36;7.90;99.90
27306;DHT22;14792;50.886;6.468;2022-09-21T06:49:37;8.10;99.90
27306;DHT22;14792;50.886;6.468;2022-09-21T06:52:39;8.30;99.90
27306;DHT22;14792;50.886;6.468;2022-09-21T06:55:40;8.50;99.90
27306;DHT22;14792;50.886;6.468;2022-09-21T06:58:42;8.80;99.90
27306;DHT22;14792;50.886;6.468;2022-09-21T07:01:44;9.00;99.90
27306;DHT22;14792;50.886;6.468;2022-09-21T07:04:45;9.20;99.90
27306;DHT22;14792;50.886;6.468;2022-09-21T07:07:47;9.30;99.90
27306;DHT22;14792;50.886;6.468;2022-09-21T07:10:48;9.50;99.90
27306;DHT22;14792;50.886;6.468;2022-09-21T07:13:50;9.80;99.90
27306;DHT22;14792;50.886;6.468;2022-09-21T07:16:51;10.00;99.90
27306;DHT22;14792;50.886;6.468;2022-09-21T07:19:53;10.20;99.90
27306;DHT22;14792;50.886;6.468;2022-09-21T07:22:55;10.50;99.90
27306;DHT22;14792;50.886;6.468;2022-09-21T07:25:59;10.90;99.90
27306;DHT22;14792;50.886;6.468;2022-09-21T07:28:58;11.00;99.90
27306;DHT22;14792;50.886;6.468;2022-09-21T07:31:59;11.30;99.90
27306;DHT22;14792;50.886;6.468;2022-09-21T07:35:01;11.40;99.90
27306;DHT22;14792;50.886;6.468;2022-09-21T07:38:06;11.40;99.90
27306;DHT22;14792;50.886;6.468;2022-09-21T07:41:07;11.70;99.90
27306;DHT22;14792;50.886;6.468;2022-09-21T07:44:08;12.00;99.90
27306;DHT22;14792;50.886;6.468;2022-09-21T07:47:10;12.30;99.90
27306;DHT22;14792;50.886;6.468;2022-09-21T07:50:12;12.60;99.90
27306;DHT22;14792;50.886;6.468;2022-09-21T07:53:13;12.80;99.90
27306;DHT22;14792;50.886;6.468;2022-09-21T07:56:15;13.00;99.90
27306;DHT22;14792;50.886;6.468;2022-09-21T07:59:16;13.20;99.90
27306;DHT22;14792;50.886;6.468;2022-09-21T08:02:18;13.40;99.90
27306;DHT22;14792;50.886;6.468;2022-09-21T08:05:19;13.40;99.90
27306;DHT22;14792;50.886;6.468;2022-09-21T08:08:21;13.60;99.90
27306;DHT22;14792;50.886;6.468;2022-09-21T08:11:38;13.50;99.90
27306;DHT22;14792;50.886;6.468;2022-09-21T08:14:39;13.50;99.90
27306;DHT22;14792;50.886;6.468;2022-09-21T08:17:41;13.50;99.90
27306;DHT22;14792;50.886;6.468;2022-09-21T08:20:43;13.50;99.90
27306;DHT22;14792;50.886;6.468;2022-09-21T08:23:44;13.60;99.90
27306;DHT22;14792;50.886;6.468;2022-09-21T08:26:46;13.90;99.90
27306;DHT22;14792;50.886;6.468;2022-09-21T08:29:48;13.70;99.90
27306;DHT22;14792;50.886;6.468;2022-09-21T08:32:49;13.90;99.90
27306;DHT22;14792;50.886;6.468;2022-09-21T08:35:54;14.20;99.90
27306;DHT22;14792;50.886;6.468;2022-09-21T08:38:55;14.10;99.90
27306;DHT22;14792;50.886;6.468;2022-09-21T08:41:59;14.30;99.90
27306;DHT22;14792;50.886;6.468;2022-09-21T08:45:00;14.30;99.90
27306;DHT22;14792;50.886;6.468;2022-09-21T08:48:01;14.40;99.90
27306;DHT22;14792;50.886;6.468;2022-09-21T08:51:04;14.40;99.90
27306;DHT22;14792;50.886;6.468;2022-09-21T08:54:09;14.60;99.90
27306;DHT22;14792;50.886;6.468;2022-09-21T08:57:07;14.40;99.90
27306;DHT22;14792;50.886;6.468;2022-09-21T09:00:07;14.40;99.90
27306;DHT22;14792;50.886;6.468;2022-09-21T09:03:12;14.60;99.90
27306;DHT22;14792;50.886;6.468;2022-09-21T09:06:14;14.70;99.90
27306;DHT22;14792;50.886;6.468;2022-09-21T09:21:50;14.50;99.90
27306;DHT22;14792;50.886;6.468;2022-09-21T09:24:52;14.50;99.90
27306;DHT22;14792;50.886;6.468;2022-09-21T09:27:53;14.40;99.90
27306;DHT22;14792;50.886;6.468;2022-09-21T09:31:02;14.50;99.90
27306;DHT22;14792;50.886;6.468;2022-09-21T09:34:15;14.60;99.90
27306;DHT22;14792;50.886;6.468;2022-09-21T09:37:16;14.60;99.90
27306;DHT22;14792;50.886;6.468;2022-09-21T09:40:19;14.50;99.90
27306;DHT22;14792;50.886;6.468;2022-09-21T09:47:06;14.40;99.90
27306;DHT22;14792;50.886;6.468;2022-09-21T09:50:23;14.50;99.90
27306;DHT22;14792;50.886;6.468;2022-09-21T09:53:22;14.60;99.90
27306;DHT22;14792;50.886;6.468;2022-09-21T09:56:23;14.60;99.90
27306;DHT22;14792;50.886;6.468;2022-09-21T10:02:35;14.70;99.90
27306;DHT22;14792;50.886;6.468;2022-09-21T10:05:36;14.70;99.90
27306;DHT22;14792;50.886;6.468;2022-09-21T10:08:44;14.70;99.90
27306;DHT22;14792;50.886;6.468;2022-09-21T10:11:45;14.80;99.90
27306;DHT22;14792;50.886;6.468;2022-09-21T10:14:50;14.80;99.90
27306;DHT22;14792;50.886;6.468;2022-09-21T10:18:00;14.80;99.90
27306;DHT22;14792;50.886;6.468;2022-09-21T10:21:20;14.80;99.90
27306;DHT22;14792;50.886;6.468;2022-09-21T10:24:30;14.80;99.90
27306;DHT22;14792;50.886;6.468;2022-09-21T10:27:34;14.70;99.90
27306;DHT22;14792;50.886;6.468;2022-09-21T10:30:36;14.80;99.90
27306;DHT22;14792;50.886;6.468;2022-09-21T10:33:47;14.70;99.90
27306;DHT22;14792;50.886;6.468;2022-09-21T10:36:49;14.80;99.90
27306;DHT22;14792;50.886;6.468;2022-09-21T10:39:50;14.80;99.90
27306;DHT22;14792;50.886;6.468;2022-09-21T10:42:55;15.00;99.90
27306;DHT22;14792;50.886;6.468;2022-09-21T10:45:56;14.90;99.90
27306;DHT22;14792;50.886;6.468;2022-09-21T10:48:54;14.90;99.90
27306;DHT22;14792;50.886;6.468;2022-09-21T10:51:56;14.80;99.90
27306;DHT22;14792;50.886;6.468;2022-09-21T10:54:58;14.70;99.90
27306;DHT22;14792;50.886;6.468;2022-09-21T10:57:59;14.50;99.90
27306;DHT22;14792;50.886;6.468;2022-09-21T11:01:20;14.60;99.90
27306;DHT22;14792;50.886;6.468;2022-09-21T11:04:14;14.70;99.90
27306;DHT22;14792;50.886;6.468;2022-09-21T11:19:46;15.00;99.90
27306;DHT22;14792;50.886;6.468;2022-09-21T11:22:57;14.80;99.90
27306;DHT22;14792;50.886;6.468;2022-09-21T11:25:53;14.80;99.90
27306;DHT22;14792;50.886;6.468;2022-09-21T11:29:11;14.90;99.90
27306;DHT22;14792;50.886;6.468;2022-09-21T11:38:57;14.70;99.90
27306;DHT22;14792;50.886;6.468;2022-09-21T11:45:45;14.80;99.90
27306;DHT22;14792;50.886;6.468;2022-09-21T11:48:44;14.80;99.90
27306;DHT22;14792;50.886;6.468;2022-09-21T11:58:28;15.10;99.90
27306;DHT22;14792;50.886;6.468;2022-09-21T12:01:47;15.30;99.90
27306;DHT22;14792;50.886;6.468;2022-09-21T12:05:21;15.50;99.90
27306;DHT22;14792;50.886;6.468;2022-09-21T12:18:10;15.70;99.90
27306;DHT22;14792;50.886;6.468;2022-09-21T12:21:41;15.80;99.90
27306;DHT22;14792;50.886;6.468;2022-09-21T12:25:19;15.80;99.90
27306;DHT22;14792;50.886;6.468;2022-09-21T12:27:53;16.00;99.90
27306;DHT22;14792;50.886;6.468;2022-09-21T12:31:08;16.10;99.90
27306;DHT22;14792;50.886;6.468;2022-09-21T12:34:17;16.10;99.90
27306;DHT22;14792;50.886;6.468;2022-09-21T12:37:32;15.90;99.90
27306;DHT22;14792;50.886;6.468;2022-09-21T12:46:57;16.00;99.90
27306;DHT22;14792;50.886;6.468;2022-09-21T12:50:01;16.10;99.90
27306;DHT22;14792;50.886;6.468;2022-09-21T12:53:00;16.30;99.90
27306;DHT22;14792;50.886;6.468;2022-09-21T12:59:22;16.40;99.90
27306;DHT22;14792;50.886;6.468;2022-09-21T13:02:53;16.30;99.90
27306;DHT22;14792;50.886;6.468;2022-09-21T13:09:15;16.80;99.90
27306;DHT22;14792;50.886;6.468;2022-09-21T13:12:20;16.80;99.90
27306;DHT22;14792;50.886;6.468;2022-09-21T13:15:28;16.90;99.90
27306;DHT22;14792;50.886;6.468;2022-09-21T13:18:34;17.00;99.90
27306;DHT22;14792;50.886;6.468;2022-09-21T13:21:35;17.30;99.90
27306;DHT22;14792;50.886;6.468;2022-09-21T13:24:36;17.30;99.90
27306;DHT22;14792;50.886;6.468;2022-09-21T13:28:01;17.20;99.90
27306;DHT22;14792;50.886;6.468;2022-09-21T13:43:23;17.70;99.90
27306;DHT22;14792;50.886;6.468;2022-09-21T13:49:37;18.00;99.90
27306;DHT22;14792;50.886;6.468;2022-09-21T13:52:37;18.30;99.90
27306;DHT22;14792;50.886;6.468;2022-09-21T13:55:47;18.20;99.90
27306;DHT22;14792;50.886;6.468;2022-09-21T13:58:43;18.10;99.90
27306;DHT22;14792;50.886;6.468;2022-09-21T14:01:44;17.90;99.90
27306;DHT22;14792;50.886;6.468;2022-09-21T14:04:46;17.80;99.90
27306;DHT22;14792;50.886;6.468;2022-09-21T14:07:52;18.00;99.90
27306;DHT22;14792;50.886;6.468;2022-09-21T14:10:53;18.20;99.90
27306;DHT22;14792;50.886;6.468;2022-09-21T14:14:17;18.30;99.90
27306;DHT22;14792;50.886;6.468;2022-09-21T14:17:34;18.40;99.90
27306;DHT22;14792;50.886;6.468;2022-09-21T14:20:35;18.60;99.90
27306;DHT22;14792;50.886;6.468;2022-09-21T14:23:37;18.60;99.90
27306;DHT22;14792;50.886;6.468;2022-09-21T14:29:52;18.30;99.90
27306;DHT22;14792;50.886;6.468;2022-09-21T14:36:00;17.90;99.90
27306;DHT22;14792;50.886;6.468;2022-09-21T14:39:02;18.00;99.90
27306;DHT22;14792;50.886;6.468;2022-09-21T14:42:06;18.10;99.90
27306;DHT22;14792;50.886;6.468;2022-09-21T14:45:04;18.00;99.90
27306;DHT22;14792;50.886;6.468;2022-09-21T14:48:25;18.20;99.90
27306;DHT22;14792;50.886;6.468;2022-09-21T14:54:57;17.70;99.90
27306;DHT22;14792;50.886;6.468;2022-09-21T15:04:40;17.40;99.90
27306;DHT22;14792;50.886;6.468;2022-09-21T15:11:35;17.60;99.90
27306;DHT22;14792;50.886;6.468;2022-09-21T15:15:31;17.50;99.90
27306;DHT22;14792;50.886;6.468;2022-09-21T15:17:59;17.60;99.90
27306;DHT22;14792;50.886;6.468;2022-09-21T15:21:00;17.60;99.90
27306;DHT22;14792;50.886;6.468;2022-09-21T15:24:15;17.80;99.90
27306;DHT22;14792;50.886;6.468;2022-09-21T15:27:14;17.80;99.90
27306;DHT22;14792;50.886;6.468;2022-09-21T15:30:20;17.60;99.90
27306;DHT22;14792;50.886;6.468;2022-09-21T15:33:20;17.40;99.90
27306;DHT22;14792;50.886;6.468;2022-09-21T15:36:24;17.50;99.90
27306;DHT22;14792;50.886;6.468;2022-09-21T15:39:27;17.70;99.90
27306;DHT22;14792;50.886;6.468;2022-09-21T15:42:28;17.80;99.90
27306;DHT22;14792;50.886;6.468;2022-09-21T15:45:47;17.80;99.90
27306;DHT22;14792;50.886;6.468;2022-09-21T15:48:34;17.90;99.90
27306;DHT22;14792;50.886;6.468;2022-09-21T15:51:36;17.80;99.90
27306;DHT22;14792;50.886;6.468;2022-09-21T15:54:40;17.80;99.90
27306;DHT22;14792;50.886;6.468;2022-09-21T15:57:41;17.90;99.90
27306;DHT22;14792;50.886;6.468;2022-09-21T16:00:42;17.80;99.90
27306;DHT22;14792;50.886;6.468;2022-09-21T16:03:44;17.60;99.90
27306;DHT22;14792;50.886;6.468;2022-09-21T16:06:47;17.50;99.90
27306;DHT22;14792;50.886;6.468;2022-09-21T16:09:47;17.50;99.90
27306;DHT22;14792;50.886;6.468;2022-09-21T16:12:49;17.40;99.90
27306;DHT22;14792;50.886;6.468;2022-09-21T16:16:03;17.30;99.90
27306;DHT22;14792;50.886;6.468;2022-09-21T16:19:01;17.20;99.90
27306;DHT22;14792;50.886;6.468;2022-09-21T16:22:03;17.20;99.90
27306;DHT22;14792;50.886;6.468;2022-09-21T16:25:21;17.10;99.90
27306;DHT22;14792;50.886;6.468;2022-09-21T16:31:23;17.00;99.90
27306;DHT22;14792;50.886;6.468;2022-09-21T16:34:30;16.90;99.90
27306;DHT22;14792;50.886;6.468;2022-09-21T16:37:34;16.80;99.90
27306;DHT22;14792;50.886;6.468;2022-09-21T16:40:35;16.70;99.90
27306;DHT22;14792;50.886;6.468;2022-09-21T16:43:37;16.60;99.90
27306;DHT22;14792;50.886;6.468;2022-09-21T16:46:38;16.40;99.90
27306;DHT22;14792;50.886;6.468;2022-09-21T16:49:40;16.30;99.90
27306;DHT22;14792;50.886;6.468;2022-09-21T16:52:42;16.30;99.90
27306;DHT22;14792;50.886;6.468;2022-09-21T16:55:43;16.20;99.90
27306;DHT22;14792;50.886;6.468;2022-09-21T16:58:45;16.10;99.90
27306;DHT22;14792;50.886;6.468;2022-09-21T17:01:46;16.10;99.90
27306;DHT22;14792;50.886;6.468;2022-09-21T17:04:48;16.00;99.90
27306;DHT22;14792;50.886;6.468;2022-09-21T17:07:56;15.80;99.90
27306;DHT22;14792;50.886;6.468;2022-09-21T17:10:54;15.70;99.90
27306;DHT22;14792;50.886;6.468;2022-09-21T17:13:55;15.50;99.90
27306;DHT22;14792;50.886;6.468;2022-09-21T17:16:57;15.40;99.90
27306;DHT22;14792;50.886;6.468;2022-09-21T17:20:00;15.20;99.90
27306;DHT22;14792;50.886;6.468;2022-09-21T17:23:00;14.90;99.90
27306;DHT22;14792;50.886;6.468;2022-09-21T17:26:02;14.70;99.90
27306;DHT22;14792;50.886;6.468;2022-09-21T17:29:15;14.50;99.90
27306;DHT22;14792;50.886;6.468;2022-09-21T17:32:07;14.50;99.90
27306;DHT22;14792;50.886;6.468;2022-09-21T17:38:26;14.30;99.90
27306;DHT22;14792;50.886;6.468;2022-09-21T17:41:30;14.30;99.90
27306;DHT22;14792;50.886;6.468;2022-09-21T17:47:34;14.00;99.90
27306;DHT22;14792;50.886;6.468;2022-09-21T17:50:35;13.90;99.90
27306;DHT22;14792;50.886;6.468;2022-09-21T17:53:37;13.80;99.90
27306;DHT22;14792;50.886;6.468;2022-09-21T17:59:48;13.50;99.90
27306;DHT22;14792;50.886;6.468;2022-09-21T18:02:48;13.40;99.90
27306;DHT22;14792;50.886;6.468;2022-09-21T18:05:49;13.30;99.90
27306;DHT22;14792;50.886;6.468;2022-09-21T18:08:51;13.20;99.90
27306;DHT22;14792;50.886;6.468;2022-09-21T18:12:06;13.20;99.90
27306;DHT22;14792;50.886;6.468;2022-09-21T18:15:25;13.00;99.90
27306;DHT22;14792;50.886;6.468;2022-09-21T18:18:43;12.90;99.90
27306;DHT22;14792;50.886;6.468;2022-09-21T18:21:44;12.80;99.90
27306;DHT22;14792;50.886;6.468;2022-09-21T18:24:46;12.70;99.90
27306;DHT22;14792;50.886;6.468;2022-09-21T18:27:47;12.60;99.90
27306;DHT22;14792;50.886;6.468;2022-09-21T18:30:58;12.60;99.90
27306;DHT22;14792;50.886;6.468;2022-09-21T18:40:51;12.50;99.90
27306;DHT22;14792;50.886;6.468;2022-09-21T18:43:52;12.50;99.90
27306;DHT22;14792;50.886;6.468;2022-09-21T18:46:52;12.40;99.90
27306;DHT22;14792;50.886;6.468;2022-09-21T18:49:59;12.20;99.90
27306;DHT22;14792;50.886;6.468;2022-09-21T18:53:01;12.20;99.90
27306;DHT22;14792;50.886;6.468;2022-09-21T18:56:00;12.10;99.90
27306;DHT22;14792;50.886;6.468;2022-09-21T18:59:02;12.10;99.90
27306;DHT22;14792;50.886;6.468;2022-09-21T19:02:07;12.10;99.90
27306;DHT22;14792;50.886;6.468;2022-09-21T19:05:05;12.10;99.90
27306;DHT22;14792;50.886;6.468;2022-09-21T19:08:12;12.00;99.90
27306;DHT22;14792;50.886;6.468;2022-09-21T19:14:57;12.00;99.90
27306;DHT22;14792;50.886;6.468;2022-09-21T19:18:00;11.90;99.90
27306;DHT22;14792;50.886;6.468;2022-09-21T19:24:54;11.80;99.90
27306;DHT22;14792;50.886;6.468;2022-09-21T19:31:13;11.70;99.90
27306;DHT22;14792;50.886;6.468;2022-09-21T19:34:15;11.60;99.90
27306;DHT22;14792;50.886;6.468;2022-09-21T19:37:16;11.60;99.90
27306;DHT22;14792;50.886;6.468;2022-09-21T19:40:18;11.50;99.90
27306;DHT22;14792;50.886;6.468;2022-09-21T19:49:51;11.30;99.90
27306;DHT22;14792;50.886;6.468;2022-09-21T19:52:43;11.10;99.90
27306;DHT22;14792;50.886;6.468;2022-09-21T19:55:45;11.00;99.90
27306;DHT22;14792;50.886;6.468;2022-09-21T19:59:04;11.00;99.90
27306;DHT22;14792;50.886;6.468;2022-09-21T20:03:12;10.80;99.90
27306;DHT22;14792;50.886;6.468;2022-09-21T20:09:09;10.80;99.90
27306;DHT22;14792;50.886;6.468;2022-09-21T20:12:21;10.60;99.90
27306;DHT22;14792;50.886;6.468;2022-09-21T20:15:22;10.50;99.90
27306;DHT22;14792;50.886;6.468;2022-09-21T20:18:39;10.30;99.90
27306;DHT22;14792;50.886;6.468;2022-09-21T20:21:41;10.10;99.90
27306;DHT22;14792;50.886;6.468;2022-09-21T20:27:49;9.90;99.90
27306;DHT22;14792;50.886;6.468;2022-09-21T20:30:50;9.90;99.90
27306;DHT22;14792;50.886;6.468;2022-09-21T20:33:52;10.00;99.90
27306;DHT22;14792;50.886;6.468;2022-09-21T20:36:53;9.90;99.90
27306;DHT22;14792;50.886;6.468;2022-09-21T20:39:55;10.00;99.90
27306;DHT22;14792;50.886;6.468;2022-09-21T20:42:57;9.90;99.90
27306;DHT22;14792;50.886;6.468;2022-09-21T20:45:58;9.90;99.90
27306;DHT22;14792;50.886;6.468;2022-09-21T20:49:00;9.80;99.90
27306;DHT22;14792;50.886;6.468;2022-09-21T20:52:07;9.80;99.90
27306;DHT22;14792;50.886;6.468;2022-09-21T20:55:10;9.80;99.90
27306;DHT22;14792;50.886;6.468;2022-09-21T20:58:11;9.70;99.90
27306;DHT22;14792;50.886;6.468;2022-09-21T21:01:12;9.70;99.90
27306;DHT22;14792;50.886;6.468;2022-09-21T21:04:14;9.70;99.90
27306;DHT22;14792;50.886;6.468;2022-09-21T21:07:15;9.70;99.90
27306;DHT22;14792;50.886;6.468;2022-09-21T21:10:17;9.70;99.90
27306;DHT22;14792;50.886;6.468;2022-09-21T21:13:18;9.60;99.90
27306;DHT22;14792;50.886;6.468;2022-09-21T21:16:21;9.60;99.90
27306;DHT22;14792;50.886;6.468;2022-09-21T21:19:22;9.60;99.90
27306;DHT22;14792;50.886;6.468;2022-09-21T21:22:23;9.60;99.90
27306;DHT22;14792;50.886;6.468;2022-09-21T21:25:25;9.60;99.90
27306;DHT22;14792;50.886;6.468;2022-09-21T21:28:26;9.60;99.90
27306;DHT22;14792;50.886;6.468;2022-09-21T21:31:28;9.60;99.90
27306;DHT22;14792;50.886;6.468;2022-09-21T21:34:30;9.50;99.90
27306;DHT22;14792;50.886;6.468;2022-09-21T21:37:31;9.50;99.90
27306;DHT22;14792;50.886;6.468;2022-09-21T21:40:34;9.40;99.90
27306;DHT22;14792;50.886;6.468;2022-09-21T21:43:34;9.40;99.90
27306;DHT22;14792;50.886;6.468;2022-09-21T21:46:36;9.40;99.90
27306;DHT22;14792;50.886;6.468;2022-09-21T21:49:37;9.40;99.90
27306;DHT22;14792;50.886;6.468;2022-09-21T21:52:39;9.20;99.90
27306;DHT22;14792;50.886;6.468;2022-09-21T21:55:41;9.20;99.90
27306;DHT22;14792;50.886;6.468;2022-09-21T21:58:42;9.20;99.90
27306;DHT22;14792;50.886;6.468;2022-09-21T22:01:44;9.20;99.90
27306;DHT22;14792;50.886;6.468;2022-09-21T22:04:45;9.10;99.90
27306;DHT22;14792;50.886;6.468;2022-09-21T22:07:47;9.00;99.90
27306;DHT22;14792;50.886;6.468;2022-09-21T22:10:49;9.00;99.90
27306;DHT22;14792;50.886;6.468;2022-09-21T22:13:50;8.70;99.90
27306;DHT22;14792;50.886;6.468;2022-09-21T22:16:52;8.60;99.90
27306;DHT22;14792;50.886;6.468;2022-09-21T22:19:53;8.50;99.90
27306;DHT22;14792;50.886;6.468;2022-09-21T22:22:55;8.50;99.90
27306;DHT22;14792;50.886;6.468;2022-09-21T22:26:12;8.40;99.90
27306;DHT22;14792;50.886;6.468;2022-09-21T22:29:13;8.40;99.90